Sao Caetano do Sul, Brazil
Current Conditions -  °F | °C
As of 12:00 AM on Thursday 23 Oct 2014 (Local Time) from SBSP Reporting Station
Overcast Overcast  
Wind Chill: 61°   Ceiling: 1200
Heat Index: 61°   Visibility: 6mi
Dew Point: 52°   Wind: 13mph
Humidity: 72%   Direction: 130°SE
Pressure: 30.24"   Gusts: NA
Location:  23.62°S, 46.55°W
Report Text: SBSP 230200Z 13011KT 9999 OVC012 16/11 Q1024
Loading
Personal Weather Stations






























Interactive Weather Map
Tropical Storm Tracking
New forecast layout! Learn more

10-Day Weather Forecast

Advertisements
Track Severe Weather on mobile